Página principal
Imagens de satélite Previsões 10 diasClimaMeteorologia maritima Ciclones Descargas eléctricas AeroportosFAQ Notícias Sobre
Tempo : Europa África América do Norte América do Sul Ásia Austrália-Oceania Outros
Línguas Contacto

Belo Horizonte, Minas Gerais, Brasil

Aeroporto Internacional de Belo Horizonte-Confins

latitude: 19-56S, longitude: 043-56W, altura: 850 m


METAR: SBCF 040400Z 12004KT CAVOK 15/13 Q1019
TAF: SBCF 032200Z 0400/0424 12005KT CAVOK TN14/0408Z TX24/0418Z BECMG 0411/0413 32005KT 9999 SCT030 RMK PDA

Hora: 01:59 (04:59 UTC)

Observação actual do tempo

O boletim foi feito há 59 minutos, às 04:00 UTC
Vento 4 kt de es-sudeste
Temperatura 15°C
Humidade 88%
Pressão 1019 hPa
Visibilidade 10 km ou mais
sem nuvens abaixo de 1500 metros e sem cumulonimbus

Mudar unidades

Previsão

O boletim foi feito há 6 horas e 59 minutos, às 22:00 UTC
Previsão válida de 04 às 00 UTC a 04 às 24 UTC
Vento 5 kt de es-sudeste
Visibilidade 10 km ou mais
sem nuvens abaixo de 1500 metros e sem cumulonimbus
Tornando-se
de 04 às 11 UTC a 04 às 13 UTC
Vento 5 kt de noroeste
Visibilidade 10 km ou mais
Nuvens dispersasa uma altura de 3000 ft
As informações contidas neste sítio estão sujeitas a uma declaração de exoneração de responsabilidade
Tempo : Europa África América do Norte América do Sul Ásia Austrália-Oceania Outros
Imagens de satélite Previsões 10 diasClimaMeteorologia maritima Ciclones Descargas eléctricas AeroportosFAQ Línguas Contacto Notícias Sobre